createdAt,value
2018-11-05T00:00:30.590Z,12.60
2018-11-05T00:02:58.078Z,12.50
2018-11-05T00:05:25.641Z,14.23
2018-11-05T00:07:53.163Z,14.35
2018-11-05T00:10:20.690Z,15.73
2018-11-05T00:12:48.178Z,14.20
2018-11-05T00:15:15.682Z,14.93
2018-11-05T00:17:43.174Z,15.80
2018-11-05T00:20:11.442Z,16.53
2018-11-05T00:22:38.951Z,15.77
2018-11-05T00:25:07.139Z,15.10
2018-11-05T00:27:34.646Z,15.75
2018-11-05T00:30:03.947Z,13.63
2018-11-05T00:32:31.454Z,15.23
2018-11-05T00:34:58.959Z,13.37
2018-11-05T00:37:26.478Z,17.50
2018-11-05T00:39:53.979Z,15.60
2018-11-05T00:42:21.479Z,15.68
2018-11-05T00:44:48.998Z,15.60
2018-11-05T00:47:16.494Z,15.00
2018-11-05T00:49:44.003Z,14.70
2018-11-05T00:52:11.498Z,15.00
2018-11-05T00:54:38.998Z,16.23
2018-11-05T00:57:06.614Z,15.97
2018-11-05T00:59:34.122Z,15.50
2018-11-05T01:02:02.070Z,15.20
2018-11-05T01:04:29.586Z,13.20
2018-11-05T01:06:57.096Z,13.77
2018-11-05T01:09:24.862Z,13.43
2018-11-05T01:11:52.362Z,13.13
2018-11-05T01:14:19.851Z,13.90
2018-11-05T01:16:47.359Z,14.70
2018-11-05T01:19:14.870Z,13.80
2018-11-05T01:21:42.420Z,13.73
2018-11-05T01:24:09.903Z,13.20
2018-11-05T01:26:37.513Z,14.15
2018-11-05T01:29:04.958Z,14.93
2018-11-05T01:31:32.454Z,14.00
2018-11-05T01:33:59.947Z,13.33
2018-11-05T01:36:27.454Z,14.70
2018-11-05T01:38:54.961Z,13.95
2018-11-05T01:41:22.475Z,15.08
2018-11-05T01:43:50.438Z,11.50
2018-11-05T01:46:17.970Z,13.80
2018-11-05T01:48:45.771Z,12.57
2018-11-05T01:51:13.360Z,12.50
2018-11-05T01:53:40.882Z,11.80
2018-11-05T01:56:08.398Z,11.43
2018-11-05T01:58:35.891Z,11.97
2018-11-05T02:01:03.402Z,11.80
2018-11-05T02:03:30.906Z,11.07
2018-11-05T02:05:58.457Z,11.67
2018-11-05T02:08:25.966Z,11.57
2018-11-05T02:10:53.477Z,10.98
2018-11-05T02:13:21.060Z,10.60
2018-11-05T02:15:48.550Z,11.90
2018-11-05T02:18:16.046Z,11.93
2018-11-05T02:20:43.554Z,10.03
2018-11-05T02:23:11.050Z,11.27
2018-11-05T02:25:38.560Z,10.70
2018-11-05T02:28:06.052Z,11.43
2018-11-05T02:30:33.557Z,10.40
2018-11-05T02:33:01.352Z,12.03
2018-11-05T02:35:28.875Z,10.73
2018-11-05T02:37:56.410Z,10.13
2018-11-05T02:40:23.947Z,12.87
2018-11-05T02:42:51.442Z,10.78
2018-11-05T02:45:19.972Z,10.40
2018-11-05T02:47:47.478Z,9.97
2018-11-05T02:50:15.358Z,10.83
2018-11-05T02:52:43.738Z,12.98
2018-11-05T02:55:11.235Z,11.40
2018-11-05T02:57:38.774Z,13.30
2018-11-05T03:00:07.953Z,12.33
2018-11-05T03:02:35.466Z,12.70
2018-11-05T03:05:03.131Z,13.18
2018-11-05T03:07:30.646Z,13.47
2018-11-05T03:09:58.169Z,11.70
2018-11-05T03:12:25.719Z,13.17
2018-11-05T03:14:53.802Z,12.43
2018-11-05T03:17:21.326Z,13.80
2018-11-05T03:19:48.802Z,16.20
2018-11-05T03:22:16.346Z,14.30
2018-11-05T03:24:43.844Z,11.70
2018-11-05T03:27:11.338Z,17.90
2018-11-05T03:29:38.838Z,21.17
2018-11-05T03:32:06.368Z,16.13
2018-11-05T03:34:33.871Z,15.47
2018-11-05T03:37:01.970Z,18.43
2018-11-05T03:39:29.508Z,23.60
2018-11-05T03:41:57.034Z,23.43
2018-11-05T03:44:24.833Z,23.17
2018-11-05T03:46:52.973Z,24.30
2018-11-05T03:49:20.466Z,24.97
2018-11-05T03:51:47.990Z,24.77
2018-11-05T03:54:15.489Z,26.42
2018-11-05T03:56:43.346Z,23.73
2018-11-05T03:59:10.787Z,27.13
2018-11-05T04:01:38.345Z,26.70
2018-11-05T04:04:05.878Z,24.30
2018-11-05T04:06:33.428Z,26.90
2018-11-05T04:09:03.378Z,29.65
2018-11-05T04:11:30.889Z,29.70
2018-11-05T04:13:58.407Z,22.77
2018-11-05T04:16:25.956Z,27.67
2018-11-05T04:18:54.204Z,26.53
2018-11-05T04:21:21.694Z,26.83
2018-11-05T04:23:49.202Z,23.77
2018-11-05T04:26:16.718Z,29.27
2018-11-05T04:28:44.226Z,28.43
2018-11-05T04:31:11.736Z,26.53
2018-11-05T04:33:39.239Z,26.47
2018-11-05T04:36:06.767Z,26.97
2018-11-05T04:38:34.262Z,25.60
2018-11-05T04:41:03.147Z,30.03
2018-11-05T04:45:49.970Z,27.07
2018-11-05T04:48:17.465Z,23.93
2018-11-05T04:50:45.218Z,24.30
2018-11-05T04:53:12.710Z,26.90
2018-11-05T04:55:40.418Z,28.33
2018-11-05T04:58:07.954Z,27.80
2018-11-05T05:00:35.439Z,23.73
2018-11-05T05:03:06.352Z,26.67
2018-11-05T05:05:35.312Z,27.53
2018-11-05T05:08:02.815Z,25.13
2018-11-05T05:10:31.225Z,26.53
2018-11-05T05:12:58.795Z,29.13
2018-11-05T05:15:26.334Z,30.23
2018-11-05T05:17:53.852Z,26.23
2018-11-05T05:20:21.975Z,27.50
2018-11-05T05:22:49.606Z,24.72
2018-11-05T05:25:17.034Z,26.90
2018-11-05T05:27:44.583Z,26.87
2018-11-05T05:30:15.914Z,23.90
2018-11-05T05:32:43.805Z,25.57
2018-11-05T05:35:11.354Z,26.57
2018-11-05T05:37:39.026Z,26.20
2018-11-05T05:40:06.876Z,24.37
2018-11-05T05:42:34.394Z,27.73
2018-11-05T05:45:02.138Z,24.97
2018-11-05T05:47:29.661Z,27.67
2018-11-05T05:49:57.260Z,23.55
2018-11-05T05:52:24.744Z,24.33
2018-11-05T05:54:52.375Z,23.87
2018-11-05T05:57:19.882Z,24.53
2018-11-05T05:59:47.462Z,22.23
2018-11-05T06:02:14.922Z,25.43
2018-11-05T06:04:42.426Z,25.53
2018-11-05T06:07:09.960Z,24.70
2018-11-05T06:09:37.750Z,27.73
2018-11-05T06:12:05.285Z,23.13
2018-11-05T06:14:32.807Z,24.05
2018-11-05T06:17:00.468Z,22.15
2018-11-05T06:19:28.039Z,22.00
2018-11-05T06:21:55.696Z,22.40
2018-11-05T06:24:23.146Z,21.57
2018-11-05T06:26:50.642Z,21.50
2018-11-05T06:29:18.155Z,20.67
2018-11-05T06:31:45.867Z,21.00
2018-11-05T06:34:13.370Z,21.40
2018-11-05T06:36:40.951Z,22.77
2018-11-05T06:39:09.122Z,22.37
2018-11-05T06:41:36.620Z,21.73
2018-11-05T06:44:04.395Z,21.27
2018-11-05T06:46:31.913Z,22.60
2018-11-05T06:48:59.493Z,24.07
2018-11-05T06:51:27.022Z,19.23
2018-11-05T06:53:54.583Z,21.50
2018-11-05T06:56:22.133Z,20.90
2018-11-05T06:58:49.658Z,18.13
2018-11-05T07:01:17.148Z,17.70
2018-11-05T07:03:44.676Z,20.30
2018-11-05T07:06:12.186Z,20.10
2018-11-05T07:08:39.910Z,17.70
2018-11-05T07:11:07.532Z,19.67
2018-11-05T07:13:34.978Z,17.57
2018-11-05T07:16:02.595Z,18.77
2018-11-05T07:18:30.269Z,16.97
2018-11-05T07:20:57.718Z,21.30
2018-11-05T07:23:25.262Z,19.62
2018-11-05T07:25:53.075Z,17.53
2018-11-05T07:28:20.974Z,18.97
2018-11-05T07:30:48.487Z,20.83
2018-11-05T07:33:16.049Z,17.77
2018-11-05T07:35:43.506Z,19.37
2018-11-05T07:38:10.999Z,18.40
2018-11-05T07:40:38.521Z,20.33
2018-11-05T07:43:06.672Z,20.75
2018-11-05T07:45:34.194Z,20.07
2018-11-05T07:48:02.058Z,20.93
2018-11-05T07:50:29.567Z,18.77
2018-11-05T07:52:57.131Z,20.80
2018-11-05T07:55:24.648Z,20.25
2018-11-05T07:57:52.446Z,17.93
2018-11-05T08:00:25.515Z,18.77
2018-11-05T08:02:55.280Z,19.50
2018-11-05T08:05:23.382Z,18.60
2018-11-05T08:07:50.974Z,19.03
2018-11-05T08:10:18.502Z,19.73
2018-11-05T08:12:46.085Z,21.82
2018-11-05T08:15:15.002Z,20.70
2018-11-05T08:17:43.791Z,21.05
2018-11-05T08:20:11.910Z,19.03
2018-11-05T08:22:39.480Z,24.87
2018-11-05T08:25:07.227Z,22.07
2018-11-05T08:27:34.998Z,19.80
2018-11-05T08:30:05.979Z,21.27
2018-11-05T08:32:33.847Z,20.60
2018-11-05T08:35:01.476Z,20.60
2018-11-05T08:37:28.990Z,21.83
2018-11-05T08:39:56.527Z,17.87
2018-11-05T08:42:24.058Z,20.43
2018-11-05T08:44:51.574Z,21.47
2018-11-05T08:47:19.077Z,21.63
2018-11-05T08:49:46.703Z,23.17
2018-11-05T08:52:14.157Z,20.57
2018-11-05T08:54:41.757Z,20.33
2018-11-05T08:57:09.270Z,20.83
2018-11-05T08:59:36.778Z,19.60
2018-11-05T09:02:04.347Z,21.47
2018-11-05T09:04:31.917Z,20.00
2018-11-05T09:06:59.519Z,19.25
2018-11-05T09:09:27.055Z,18.10
2018-11-05T09:11:54.656Z,17.57
2018-11-05T09:14:22.139Z,18.37
2018-11-05T09:16:49.666Z,18.00
2018-11-05T09:19:17.186Z,21.90
2018-11-05T09:21:44.670Z,16.30
2018-11-05T09:24:12.191Z,18.67
2018-11-05T09:26:39.700Z,20.00
2018-11-05T09:29:07.494Z,20.17
2018-11-05T09:31:35.035Z,19.30
2018-11-05T09:34:02.690Z,20.23
2018-11-05T09:36:30.226Z,21.80
2018-11-05T09:38:57.754Z,20.97
2018-11-05T09:41:25.432Z,19.60
2018-11-05T09:43:53.281Z,18.97
2018-11-05T09:46:20.942Z,16.77
2018-11-05T09:48:48.453Z,20.43
2018-11-05T09:51:15.963Z,19.80
2018-11-05T09:53:43.450Z,19.83
2018-11-05T09:56:10.958Z,18.47
2018-11-05T09:58:38.455Z,22.43
2018-11-05T10:01:05.982Z,22.17
2018-11-05T10:03:38.157Z,23.23
2018-11-05T10:06:05.879Z,23.13
2018-11-05T10:08:33.387Z,20.77
2018-11-05T10:11:01.453Z,23.13
2018-11-05T10:13:28.915Z,22.00
2018-11-05T10:15:56.470Z,21.47
2018-11-05T10:18:23.990Z,23.73
2018-11-05T10:20:51.483Z,22.70
2018-11-05T10:23:18.987Z,21.40
2018-11-05T10:25:46.506Z,18.27
2018-11-05T10:28:14.015Z,19.33
2018-11-05T10:30:41.531Z,20.25
2018-11-05T10:33:09.845Z,22.07
2018-11-05T10:35:42.909Z,21.90
2018-11-05T10:38:10.410Z,19.23
2018-11-05T10:40:37.922Z,20.20
2018-11-05T10:43:05.499Z,20.60
2018-11-05T10:45:33.267Z,20.40
2018-11-05T10:48:01.444Z,20.20
2018-11-05T10:50:29.016Z,18.67
2018-11-05T10:52:56.492Z,19.50
2018-11-05T10:55:24.294Z,22.20
2018-11-05T10:57:51.803Z,19.40
2018-11-05T11:00:25.453Z,21.20
2018-11-05T11:02:58.458Z,17.98
2018-11-05T11:05:26.780Z,20.88
2018-11-05T11:07:55.451Z,20.57
2018-11-05T11:10:23.293Z,20.40
2018-11-05T11:12:50.806Z,19.70
2018-11-05T11:15:18.658Z,19.37
2018-11-05T11:17:46.119Z,22.00
2018-11-05T11:20:14.039Z,19.40
2018-11-05T11:22:41.568Z,20.67
2018-11-05T11:25:09.546Z,22.60
2018-11-05T11:27:37.441Z,22.10
2018-11-05T11:30:05.286Z,21.77
2018-11-05T11:32:32.892Z,22.00
2018-11-05T11:35:00.617Z,22.93
2018-11-05T11:37:29.347Z,22.27
2018-11-05T11:39:56.867Z,22.67
2018-11-05T11:42:24.419Z,21.40
2018-11-05T11:44:51.962Z,20.83
2018-11-05T11:47:19.422Z,23.47
2018-11-05T11:49:46.926Z,24.87
2018-11-05T11:52:14.439Z,19.35
2018-11-05T11:54:41.981Z,26.80
2018-11-05T11:57:09.483Z,24.77
2018-11-05T11:59:37.574Z,23.27
2018-11-05T12:02:10.656Z,21.40
2018-11-05T12:04:38.170Z,22.50
2018-11-05T12:07:05.898Z,21.23
2018-11-05T12:09:33.436Z,22.10
2018-11-05T12:12:01.930Z,21.97
2018-11-05T12:14:29.500Z,21.53
2018-11-05T12:16:57.078Z,22.70
2018-11-05T12:19:24.612Z,22.67
2018-11-05T12:21:52.132Z,23.57
2018-11-05T12:24:19.633Z,26.27
2018-11-05T12:26:47.162Z,21.77
2018-11-05T12:29:14.679Z,18.93
2018-11-05T12:31:42.534Z,22.77
2018-11-05T12:34:10.111Z,24.27
2018-11-05T12:36:37.630Z,24.12
2018-11-05T12:39:06.854Z,22.98
2018-11-05T12:41:34.355Z,19.93
2018-11-05T12:44:04.010Z,22.90
2018-11-05T12:46:31.579Z,22.75
2018-11-05T12:48:59.185Z,22.17
2018-11-05T12:51:26.706Z,18.53
2018-11-05T12:53:54.352Z,21.82
2018-11-05T12:56:21.807Z,20.30
2018-11-05T12:58:49.335Z,20.43
2018-11-05T13:01:16.919Z,21.80
2018-11-05T13:03:44.450Z,21.13
2018-11-05T13:06:11.938Z,21.10
2018-11-05T13:08:39.454Z,22.27
2018-11-05T13:11:06.958Z,23.73
2018-11-05T13:13:34.461Z,23.23
2018-11-05T13:16:02.667Z,21.40
2018-11-05T13:18:30.182Z,20.30
2018-11-05T13:20:57.696Z,27.53
2018-11-05T13:23:30.766Z,26.73
2018-11-05T13:25:58.287Z,24.27
2018-11-05T13:28:25.905Z,22.17
2018-11-05T13:30:53.383Z,23.03
2018-11-05T13:33:20.879Z,24.15
2018-11-05T13:35:48.391Z,23.37
2018-11-05T13:38:16.494Z,22.10
2018-11-05T13:40:43.413Z,23.50
2018-11-05T13:43:10.923Z,24.35
2018-11-05T13:45:38.686Z,22.57
2018-11-05T13:48:06.313Z,25.30
2018-11-05T13:50:33.446Z,20.57
2018-11-05T13:53:01.403Z,23.40
2018-11-05T13:55:28.918Z,31.20
2018-11-05T13:57:56.442Z,23.95
2018-11-05T14:00:23.970Z,24.82
2018-11-05T14:02:51.471Z,25.07
2018-11-05T14:05:19.028Z,26.67
2018-11-05T14:07:46.513Z,24.97
2018-11-05T14:10:15.150Z,26.40
2018-11-05T14:12:43.809Z,21.70
2018-11-05T14:15:11.265Z,27.60
2018-11-05T14:17:39.127Z,23.13
2018-11-05T14:20:07.779Z,22.93
2018-11-05T14:22:35.487Z,24.87
2018-11-05T14:25:02.990Z,22.27
2018-11-05T14:27:30.762Z,23.83
2018-11-05T14:29:58.418Z,23.33
2018-11-05T14:32:25.610Z,23.20
2018-11-05T14:34:53.135Z,26.17
2018-11-05T14:37:20.923Z,25.50
2018-11-05T14:39:48.439Z,21.70
2018-11-05T14:42:15.926Z,21.33
2018-11-05T14:44:43.436Z,23.83
2018-11-05T14:47:10.952Z,23.40
2018-11-05T14:49:38.470Z,21.60
2018-11-05T14:52:05.975Z,23.38
2018-11-05T14:54:33.483Z,24.83
2018-11-05T14:57:01.652Z,21.40
2018-11-05T14:59:29.168Z,26.00
2018-11-05T15:02:02.274Z,21.50
2018-11-05T15:04:29.775Z,21.10
2018-11-05T15:06:57.306Z,24.50
2018-11-05T15:09:24.854Z,29.60
2018-11-05T15:11:52.414Z,28.83
2018-11-05T15:14:19.938Z,24.73
2018-11-05T15:16:47.431Z,33.30
2018-11-05T15:19:15.597Z,31.80
2018-11-05T15:21:42.706Z,26.97
2018-11-05T15:24:10.204Z,28.87
2018-11-05T15:26:37.981Z,27.97
2018-11-05T15:29:05.407Z,26.83
2018-11-05T15:31:32.907Z,28.30
2018-11-05T15:34:00.583Z,28.43
2018-11-05T15:36:27.962Z,26.95
2018-11-05T15:38:55.506Z,28.97
2018-11-05T15:41:23.062Z,23.97
2018-11-05T15:43:51.689Z,28.07
2018-11-05T15:46:19.210Z,27.83
2018-11-05T15:48:47.027Z,27.10
2018-11-05T15:51:14.709Z,24.30
2018-11-05T15:53:42.295Z,34.30
2018-11-05T15:56:09.554Z,29.73
2018-11-05T15:58:37.067Z,30.80
2018-11-05T16:01:05.075Z,29.97
2018-11-05T16:03:32.687Z,34.27
2018-11-05T16:06:00.204Z,30.70
2018-11-05T16:08:28.310Z,33.13
2018-11-05T16:10:55.831Z,30.97
2018-11-05T16:13:24.311Z,32.57
2018-11-05T16:15:51.841Z,35.73
2018-11-05T16:18:19.354Z,30.13
2018-11-05T16:20:46.862Z,31.50
2018-11-05T16:23:14.355Z,31.23
2018-11-05T16:25:42.001Z,31.10
2018-11-05T16:28:09.427Z,30.85
2018-11-05T16:30:36.975Z,31.37
2018-11-05T16:33:04.454Z,33.50
2018-11-05T16:35:32.033Z,32.37
2018-11-05T16:37:59.514Z,33.27
2018-11-05T16:40:27.036Z,33.83
2018-11-05T16:42:54.534Z,33.90
2018-11-05T16:45:22.039Z,33.88
2018-11-05T16:47:49.824Z,32.73
2018-11-05T16:50:18.986Z,31.97
2018-11-05T16:52:46.513Z,31.60
2018-11-05T16:55:14.589Z,32.33
2018-11-05T16:57:42.733Z,32.47
2018-11-05T17:00:10.583Z,29.82
2018-11-05T17:02:38.401Z,31.43
2018-11-05T17:05:05.587Z,29.53
2018-11-05T17:07:33.094Z,35.70
2018-11-05T17:10:00.615Z,29.13
2018-11-05T17:12:28.107Z,31.13
2018-11-05T17:14:55.646Z,32.87
2018-11-05T17:17:23.172Z,29.70
2018-11-05T17:19:50.662Z,30.70
2018-11-05T17:22:18.179Z,33.80
2018-11-05T17:24:45.698Z,35.73
2018-11-05T17:27:13.194Z,28.30
2018-11-05T17:29:40.983Z,33.87
2018-11-05T17:32:08.482Z,27.27
2018-11-05T17:34:36.563Z,29.75
2018-11-05T17:37:04.240Z,30.50
2018-11-05T17:39:31.785Z,30.33
2018-11-05T17:41:59.259Z,27.80
2018-11-05T17:44:26.887Z,31.27
2018-11-05T17:46:54.406Z,29.87
2018-11-05T17:49:21.910Z,28.70
2018-11-05T17:51:49.560Z,29.70
2018-11-05T17:54:17.056Z,28.80
2018-11-05T17:56:44.632Z,30.30
2018-11-05T17:59:12.094Z,31.00
2018-11-05T18:01:39.742Z,33.10
2018-11-05T18:04:07.350Z,32.60
2018-11-05T18:06:34.772Z,26.07
2018-11-05T18:09:02.723Z,30.00
2018-11-05T18:11:30.290Z,28.98
2018-11-05T18:13:57.794Z,27.55
2018-11-05T18:16:25.350Z,27.05
2018-11-05T18:18:52.896Z,27.30
2018-11-05T18:21:20.398Z,30.08
2018-11-05T18:23:47.926Z,31.12
2018-11-05T18:26:15.762Z,27.53
2018-11-05T18:28:43.251Z,26.97
2018-11-05T18:31:10.807Z,29.37
2018-11-05T18:33:38.423Z,31.10
2018-11-05T18:36:05.960Z,29.93
2018-11-05T18:38:33.443Z,29.70
2018-11-05T18:41:01.146Z,27.53
2018-11-05T18:43:28.654Z,29.57
2018-11-05T18:45:56.214Z,29.30
2018-11-05T18:48:23.706Z,30.13
2018-11-05T18:50:51.249Z,28.73
2018-11-05T18:53:18.735Z,30.10
2018-11-05T18:55:46.282Z,27.87
2018-11-05T18:58:13.783Z,29.80
2018-11-05T19:00:44.394Z,26.30
2018-11-05T19:03:11.948Z,31.50
2018-11-05T19:05:39.374Z,27.93
2018-11-05T19:08:06.970Z,27.40
2018-11-05T19:10:35.434Z,31.90
2018-11-05T19:13:02.939Z,28.27
2018-11-05T19:15:30.690Z,31.60
2018-11-05T19:17:58.237Z,27.60
2018-11-05T19:20:25.722Z,26.40
2018-11-05T19:22:53.340Z,27.40
2018-11-05T19:25:20.762Z,27.82
2018-11-05T19:27:48.319Z,26.83
2018-11-05T19:30:17.819Z,25.83
2018-11-05T19:32:45.683Z,28.57
2018-11-05T19:35:13.225Z,28.33
2018-11-05T19:37:41.342Z,25.70
2018-11-05T19:40:10.023Z,26.43
2018-11-05T19:42:37.794Z,28.83
2018-11-05T19:45:06.188Z,24.80
2018-11-05T19:47:33.689Z,24.90
2018-11-05T19:50:02.573Z,28.53
2018-11-05T19:52:31.985Z,28.30
2018-11-05T19:54:59.507Z,29.80
2018-11-05T19:57:27.026Z,28.60
2018-11-05T19:59:54.581Z,26.67
2018-11-05T20:02:26.475Z,28.27
2018-11-05T20:04:53.982Z,26.33
2018-11-05T20:07:22.142Z,27.90
2018-11-05T20:09:49.650Z,25.17
2018-11-05T20:12:17.150Z,24.80
2018-11-05T20:14:44.688Z,23.85
2018-11-05T20:17:12.179Z,27.82
2018-11-05T20:19:39.708Z,25.87
2018-11-05T20:22:07.214Z,27.30
2018-11-05T20:24:34.742Z,25.63
2018-11-05T20:27:03.246Z,26.90
2018-11-05T20:29:30.753Z,26.40
2018-11-05T20:31:58.482Z,27.33
2018-11-05T20:34:25.999Z,23.33
2018-11-05T20:36:53.863Z,29.33
2018-11-05T20:39:21.403Z,27.13
2018-11-05T20:41:48.930Z,27.47
2018-11-05T20:44:16.457Z,26.77
2018-11-05T20:46:44.016Z,24.07
2018-11-05T20:49:11.487Z,22.50
2018-11-05T20:51:38.994Z,26.07
2018-11-05T20:54:06.563Z,22.50
2018-11-05T20:56:34.054Z,20.57
2018-11-05T20:59:03.275Z,21.30
2018-11-05T21:01:30.760Z,23.40
2018-11-05T21:03:58.273Z,22.73
2018-11-05T21:06:25.843Z,24.60
2018-11-05T21:08:54.000Z,22.47
2018-11-05T21:11:21.622Z,22.82
2018-11-05T21:13:49.153Z,22.43
2018-11-05T21:16:17.110Z,23.60
2018-11-05T21:18:44.598Z,27.20
2018-11-05T21:21:12.162Z,20.57
2018-11-05T21:23:39.638Z,26.80
2018-11-05T21:26:07.318Z,23.40
2018-11-05T21:28:34.822Z,26.77
2018-11-05T21:31:02.668Z,24.47
2018-11-05T21:33:30.198Z,25.07
2018-11-05T21:35:57.711Z,24.65
2018-11-05T21:38:25.274Z,26.57
2018-11-05T21:40:52.762Z,27.50
2018-11-05T21:43:20.338Z,24.92
2018-11-05T21:45:47.820Z,28.10
2018-11-05T21:48:15.330Z,27.70
2018-11-05T21:50:42.843Z,23.75
2018-11-05T21:53:10.619Z,24.43
2018-11-05T21:55:38.538Z,23.98
2018-11-05T21:58:06.046Z,24.57
2018-11-05T22:00:33.598Z,22.27
2018-11-05T22:03:02.558Z,21.20
2018-11-05T22:05:30.074Z,24.73
2018-11-05T22:07:57.659Z,26.60
2018-11-05T22:10:25.117Z,26.60
2018-11-05T22:12:52.632Z,26.37
2018-11-05T22:15:20.158Z,22.43
2018-11-05T22:17:47.701Z,20.85
2018-11-05T22:20:15.197Z,21.83
2018-11-05T22:22:42.836Z,24.77
2018-11-05T22:25:11.443Z,23.55
2018-11-05T22:27:39.070Z,22.27
2018-11-05T22:30:07.337Z,21.40
2018-11-05T22:32:34.822Z,19.13
2018-11-05T22:35:03.472Z,20.95
2018-11-05T22:37:30.986Z,19.60
2018-11-05T22:39:58.659Z,25.13
2018-11-05T22:42:26.266Z,18.95
2018-11-05T22:44:53.811Z,21.10
2018-11-05T22:47:21.341Z,20.63
2018-11-05T22:49:48.947Z,25.45
2018-11-05T22:52:16.430Z,19.67
2018-11-05T22:54:43.959Z,20.17
2018-11-05T22:57:11.449Z,20.20
2018-11-05T22:59:38.967Z,20.97
2018-11-05T23:02:06.451Z,28.23
2018-11-05T23:04:33.944Z,21.33
2018-11-05T23:07:02.370Z,20.60
2018-11-05T23:09:29.869Z,23.30
2018-11-05T23:11:57.399Z,17.80
2018-11-05T23:14:24.922Z,22.10
2018-11-05T23:16:52.410Z,18.55
2018-11-05T23:19:19.939Z,19.60
2018-11-05T23:21:47.426Z,20.20
2018-11-05T23:24:14.934Z,16.83
2018-11-05T23:26:42.450Z,17.43
2018-11-05T23:29:10.107Z,20.60
2018-11-05T23:31:37.607Z,19.50
2018-11-05T23:34:05.242Z,17.20
2018-11-05T23:36:32.722Z,17.20
2018-11-05T23:39:00.234Z,17.17
2018-11-05T23:41:28.101Z,15.97
2018-11-05T23:43:56.004Z,16.80
2018-11-05T23:46:23.481Z,16.43
2018-11-05T23:48:51.009Z,16.10
2018-11-05T23:51:18.534Z,15.03
2018-11-05T23:53:46.031Z,15.53
2018-11-05T23:56:13.542Z,16.43
2018-11-05T23:58:41.042Z,15.80
